Time;durP1;ratioP1;P1;durP2;ratioP2;P2;SDS_P1;SDS_P2;PMS_P1;PMS_P2;Temp;Humidity;BMP_temperature;BMP_pressure;BME280_temperature;BME280_humidity;BME280_pressure;Samples;Min_cycle;Max_cycle;Signal;HPM_P1;HPM_P2
2022/06/07 00:01:22;;;;;;;6.40;4.00;;;;;;;22.41;86.40;99444.53;5073792;28;20192;-64
2022/06/07 00:03:49;;;;;;;4.13;3.50;;;;;;;22.35;87.93;99436.69;5073491;28;20193;-64
2022/06/07 00:06:16;;;;;;;4.00;3.70;;;;;;;22.27;86.88;99429.97;5073376;28;20232;-64
2022/06/07 00:08:43;;;;;;;3.87;3.57;;;;;;;22.17;87.06;99437.28;5073327;28;20660;-63
2022/06/07 00:11:10;;;;;;;3.40;3.20;;;;;;;22.08;87.02;99431.59;5073579;28;20283;-63
2022/06/07 00:13:39;;;;;;;5.70;3.80;;;;;;;22.05;88.60;99431.34;5073622;28;20246;-64
2022/06/07 00:16:06;;;;;;;4.80;3.70;;;;;;;21.97;88.12;99440.78;5074085;28;20207;-63
2022/06/07 00:18:33;;;;;;;4.23;3.90;;;;;;;21.97;88.64;99440.00;5074070;28;20224;-63
2022/06/07 00:21:01;;;;;;;3.67;3.37;;;;;;;21.98;91.48;99433.50;5073187;28;20191;-63
2022/06/07 00:23:28;;;;;;;6.03;3.73;;;;;;;22.01;89.50;99433.75;5073035;28;20192;-63
2022/06/07 00:25:55;;;;;;;4.00;3.63;;;;;;;22.00;89.74;99432.13;5074208;28;20615;-64
2022/06/07 00:28:23;;;;;;;5.40;3.60;;;;;;;21.98;89.41;99441.59;5073553;28;20261;-64
2022/06/07 00:30:53;;;;;;;6.47;4.10;;;;;;;21.95;89.64;99434.84;5072943;28;20197;-64
2022/06/07 00:33:21;;;;;;;8.13;3.90;;;;;;;21.89;90.15;99427.81;5073740;28;20195;-64
2022/06/07 00:35:48;;;;;;;8.30;4.10;;;;;;;21.90;90.86;99420.50;5073038;28;20613;-64
2022/06/07 00:38:15;;;;;;;4.33;3.77;;;;;;;21.90;92.00;99429.44;5072928;28;20296;-64
2022/06/07 00:40:42;;;;;;;6.37;4.00;;;;;;;22.00;91.01;99424.03;5072405;28;20192;-64
2022/06/07 00:43:10;;;;;;;7.83;4.60;;;;;;;22.11;91.23;99427.53;5071741;28;20199;-64
2022/06/07 00:45:37;;;;;;;5.10;4.53;;;;;;;22.17;91.02;99429.94;5070938;28;20195;-66
2022/06/07 00:48:07;;;;;;;10.67;3.50;;;;;;;22.29;91.47;99433.19;5069705;28;20200;-68
2022/06/07 00:50:40;;;;;;;4.90;4.27;;;;;;;22.32;87.97;99429.94;5069834;28;20249;-66
2022/06/07 00:53:20;;;;;;;4.40;3.43;;;;;;;22.26;87.82;99424.81;5069700;28;20261;-64
2022/06/07 00:55:47;;;;;;;5.80;4.00;;;;;;;22.20;87.49;99434.00;5069909;28;20218;-67
2022/06/07 00:58:14;;;;;;;5.93;3.70;;;;;;;22.11;87.66;99438.34;5070911;28;20678;-64
2022/06/07 01:00:41;;;;;;;7.47;3.70;;;;;;;21.96;88.24;99422.94;5070442;28;20241;-64
2022/06/07 01:03:09;;;;;;;5.17;3.73;;;;;;;21.86;89.00;99428.34;5071205;28;20192;-64
2022/06/07 01:05:37;;;;;;;6.40;4.17;;;;;;;21.76;89.47;99420.22;5070293;28;20253;-69
2022/06/07 01:10:49;;;;;;;7.20;4.27;;;;;;;21.62;89.92;99415.59;5071008;28;20191;-64
2022/06/07 01:13:20;;;;;;;5.00;4.43;;;;;;;21.60;90.45;99412.38;5070833;28;20195;-65
2022/06/07 01:15:47;;;;;;;6.73;3.67;;;;;;;21.64;91.01;99414.25;5071715;28;20188;-64
2022/06/07 01:18:16;;;;;;;4.60;4.20;;;;;;;21.69;91.80;99406.16;5071759;28;20220;-66
2022/06/07 01:20:43;;;;;;;4.93;4.50;;;;;;;21.79;91.46;99408.88;5070697;28;20196;-64
2022/06/07 01:23:12;;;;;;;7.87;4.57;;;;;;;21.88;91.00;99412.66;5071168;28;20199;-64
2022/06/07 01:25:38;;;;;;;6.30;4.60;;;;;;;21.94;91.27;99410.78;5070944;28;20225;-63
2022/06/07 01:28:05;;;;;;;8.13;4.70;;;;;;;22.05;90.57;99407.78;5070539;28;20196;-65
2022/06/07 01:30:32;;;;;;;6.70;4.33;;;;;;;22.10;89.67;99407.78;5070367;28;20196;-64
2022/06/07 01:32:59;;;;;;;4.50;4.27;;;;;;;22.08;89.36;99415.34;5071444;28;20250;-63
2022/06/07 01:35:26;;;;;;;9.33;4.73;;;;;;;22.03;88.79;99412.66;5072580;28;20253;-63
2022/06/07 01:37:52;;;;;;;5.93;5.23;;;;;;;21.95;90.55;99404.28;5071934;28;20224;-64
2022/06/07 01:43:05;;;;;;;9.90;5.50;;;;;;;21.98;90.07;99425.38;5071896;28;20265;-64
2022/06/07 01:45:32;;;;;;;4.23;3.90;;;;;;;21.93;90.41;99415.34;5071498;28;20605;-64
2022/06/07 01:47:58;;;;;;;5.17;4.47;;;;;;;21.97;88.73;99424.56;5071904;28;20195;-63
2022/06/07 01:50:25;;;;;;;4.70;3.90;;;;;;;21.96;88.65;99420.22;5071966;28;20200;-64
2022/06/07 01:52:52;;;;;;;7.10;5.57;;;;;;;21.96;88.79;99424.84;5071958;28;20196;-64
2022/06/07 01:55:19;;;;;;;6.70;5.47;;;;;;;22.00;90.77;99426.72;5071490;28;20191;-64
2022/06/07 01:57:47;;;;;;;6.27;5.30;;;;;;;22.07;88.65;99429.97;5071515;28;20710;-64
2022/06/07 02:00:14;;;;;;;7.93;4.73;;;;;;;22.15;89.15;99432.13;5071563;28;20197;-64
2022/06/07 02:02:42;;;;;;;4.53;3.90;;;;;;;22.10;87.34;99434.84;5071798;28;20200;-63
2022/06/07 02:05:09;;;;;;;7.30;3.80;;;;;;;22.00;87.16;99424.03;5071362;28;20197;-63
2022/06/07 02:07:36;;;;;;;4.40;3.97;;;;;;;21.99;87.33;99427.81;5071803;28;20610;-63
2022/06/07 02:10:03;;;;;;;5.03;4.53;;;;;;;22.00;87.81;99434.84;5071776;28;20196;-63
2022/06/07 02:12:30;;;;;;;4.77;4.17;;;;;;;21.85;89.03;99448.34;5071756;28;20252;-64
2022/06/07 02:15:00;;;;;;;5.33;4.37;;;;;;;21.83;87.08;99445.13;5071505;28;20191;-63
2022/06/07 02:17:28;;;;;;;4.50;4.20;;;;;;;21.78;89.32;99447.00;5071508;28;20184;-64
2022/06/07 02:19:54;;;;;;;6.87;4.83;;;;;;;21.74;88.00;99446.75;5071813;28;20253;-63
2022/06/07 02:22:21;;;;;;;4.80;4.40;;;;;;;21.71;88.34;99447.28;5071456;28;20241;-63
2022/06/07 02:24:48;;;;;;;5.33;4.70;;;;;;;21.70;87.87;99439.41;5071704;28;20192;-64
2022/06/07 02:27:19;;;;;;;5.30;4.67;;;;;;;21.64;87.80;99441.28;5071441;28;20227;-63
2022/06/07 02:29:48;;;;;;;5.00;4.60;;;;;;;21.53;88.45;99438.84;5071417;28;20188;-63
2022/06/07 02:32:19;;;;;;;5.00;4.57;;;;;;;21.61;90.48;99447.25;5071881;28;20628;-63
2022/06/07 02:34:51;;;;;;;5.60;5.07;;;;;;;21.62;89.40;99454.25;5070913;28;20191;-63
2022/06/07 02:37:19;;;;;;;6.00;5.60;;;;;;;21.57;89.55;99456.97;5071164;28;20278;-63
2022/06/07 02:39:46;;;;;;;8.23;5.90;;;;;;;21.35;93.86;99456.34;5069915;28;20285;-68
2022/06/07 02:42:16;;;;;;;6.87;6.27;;;;;;;21.30;92.35;99456.34;5071126;28;20660;-63
2022/06/07 02:44:43;;;;;;;7.37;5.90;;;;;;;21.35;93.44;99461.75;5070584;28;20241;-63
2022/06/07 02:47:09;;;;;;;6.10;5.37;;;;;;;21.38;94.86;99436.09;5071057;28;20188;-63
2022/06/07 02:49:38;;;;;;;6.67;5.67;;;;;;;21.66;90.86;99460.75;5070302;28;20196;-66
2022/06/07 02:52:06;;;;;;;7.63;5.03;;;;;;;21.83;92.55;99465.94;5067465;28;20283;-65
2022/06/07 02:54:33;;;;;;;7.00;5.60;;;;;;;21.94;90.07;99460.28;5066198;28;20652;-65
2022/06/07 02:57:00;;;;;;;7.13;6.63;;;;;;;22.08;89.23;99463.22;5069108;28;20199;-68
2022/06/07 02:59:27;;;;;;;7.80;5.67;;;;;;;22.12;90.50;99459.72;5066011;28;20868;-64
2022/06/07 03:01:54;;;;;;;9.70;6.40;;;;;;;22.20;89.67;99470.00;5069828;28;20188;-63
2022/06/07 03:04:21;;;;;;;6.53;5.93;;;;;;;22.25;89.10;99463.78;5070971;28;20192;-64
2022/06/07 03:06:49;;;;;;;8.10;6.30;;;;;;;22.25;87.99;99475.41;5072253;28;20737;-64
2022/06/07 03:09:16;;;;;;;12.60;6.73;;;;;;;22.22;88.52;99481.34;5072894;28;20192;-65
2022/06/07 03:11:42;;;;;;;7.80;7.07;;;;;;;22.14;88.74;99468.41;5071240;28;20282;-63
2022/06/07 03:14:10;;;;;;;7.07;6.47;;;;;;;22.08;89.43;99472.19;5072975;28;20199;-63
2022/06/07 03:16:37;;;;;;;10.63;7.50;;;;;;;22.00;89.33;99467.31;5072996;28;20192;-63
2022/06/07 03:19:04;;;;;;;7.73;7.03;;;;;;;21.86;89.01;99471.63;5073702;28;20641;-63
2022/06/07 03:21:31;;;;;;;8.63;6.93;;;;;;;21.84;89.99;99467.59;5073464;28;20625;-64
2022/06/07 03:23:59;;;;;;;8.23;7.60;;;;;;;21.79;90.50;99462.97;5074669;28;20199;-63
2022/06/07 03:26:26;;;;;;;8.33;7.50;;;;;;;21.80;91.21;99470.00;5073238;28;20188;-65
2022/06/07 03:28:53;;;;;;;9.30;8.00;;;;;;;21.86;91.88;99470.81;5074616;28;20257;-64
2022/06/07 03:31:20;;;;;;;12.33;7.10;;;;;;;21.88;91.92;99464.06;5074085;28;20188;-69
2022/06/07 03:33:48;;;;;;;9.03;8.23;;;;;;;21.91;91.77;99463.53;5073504;28;20660;-63
2022/06/07 03:36:18;;;;;;;11.33;7.57;;;;;;;21.94;92.46;99470.28;5073936;28;20242;-64
2022/06/07 03:38:45;;;;;;;9.00;8.10;;;;;;;21.95;92.06;99474.59;5073998;28;20239;-63
2022/06/07 03:41:18;;;;;;;9.03;8.13;;;;;;;21.96;92.62;99473.53;5074234;28;20184;-63
2022/06/07 03:43:45;;;;;;;10.40;7.77;;;;;;;22.00;93.45;99472.72;5073602;28;20188;-64
2022/06/07 03:46:14;;;;;;;8.63;7.83;;;;;;;22.05;92.69;99477.31;5073612;28;20262;-64
2022/06/07 03:48:42;;;;;;;13.47;8.00;;;;;;;22.05;92.38;99472.72;5073885;28;20257;-63
2022/06/07 03:51:09;;;;;;;9.53;8.70;;;;;;;22.05;93.07;99471.91;5073907;28;20196;-64
2022/06/07 03:53:36;;;;;;;9.53;8.53;;;;;;;22.10;95.11;99471.91;5073914;28;20210;-64
2022/06/07 03:56:04;;;;;;;10.77;8.57;;;;;;;22.19;92.22;99476.50;5073512;28;20242;-64
2022/06/07 03:58:32;;;;;;;8.20;7.60;;;;;;;22.30;93.01;99477.31;5073432;28;20234;-63
2022/06/07 04:01:01;;;;;;;12.00;8.47;;;;;;;22.35;91.61;99482.72;5074191;28;20254;-64
2022/06/07 04:03:28;;;;;;;10.93;9.33;;;;;;;22.33;91.98;99480.28;5074102;28;20219;-63
2022/06/07 04:05:56;;;;;;;8.10;5.50;;;;;;;22.42;94.26;99475.94;5073310;28;20196;-66
2022/06/07 04:08:23;;;;;;;8.50;5.40;;;;;;;22.62;92.93;99475.13;5073298;28;20201;-65
2022/06/07 04:10:51;;;;;;;8.40;7.30;;;;;;;22.94;91.58;99481.78;5073201;28;20659;-65
2022/06/07 04:13:19;;;;;;;11.37;9.30;;;;;;;23.27;89.46;99489.28;5073137;28;20668;-64
2022/06/07 04:15:47;;;;;;;9.47;6.07;;;;;;;23.53;88.14;99493.47;5073419;28;20201;-65
2022/06/07 04:18:14;;;;;;;8.13;5.63;;;;;;;23.96;86.88;99486.44;5073037;28;20274;-65
2022/06/07 04:20:41;;;;;;;10.10;5.87;;;;;;;24.41;84.70;99492.31;5072848;28;20735;-72
2022/06/07 04:23:09;;;;;;;26.20;17.17;;;;;;;24.84;83.01;99504.94;5071854;28;20191;-67
2022/06/07 04:25:36;;;;;;;11.87;8.50;;;;;;;25.15;81.40;99501.88;5072475;28;20245;-67
2022/06/07 04:28:04;;;;;;;6.10;5.53;;;;;;;25.53;77.53;99507.13;5070476;28;20231;-71
2022/06/07 04:30:31;;;;;;;6.87;4.80;;;;;;;25.79;75.96;99510.28;5072518;28;20191;-65
2022/06/07 04:33:00;;;;;;;5.93;4.70;;;;;;;25.99;73.29;99515.47;5072300;28;20203;-69
2022/06/07 04:35:27;;;;;;;10.50;4.67;;;;;;;26.34;70.66;99525.78;5072578;28;20564;-64
2022/06/07 04:37:55;;;;;;;7.27;5.30;;;;;;;26.49;69.18;99520.06;5072838;28;20656;-64
2022/06/07 04:40:23;;;;;;;8.83;4.93;;;;;;;26.58;69.62;99518.34;5072900;28;20227;-66
2022/06/07 04:42:49;;;;;;;11.20;8.30;;;;;;;26.50;70.30;99510.81;5072425;28;20249;-66
2022/06/07 04:45:17;;;;;;;7.33;5.47;;;;;;;26.42;71.22;99515.00;5071043;28;20265;-66
2022/06/07 04:47:45;;;;;;;14.87;7.43;;;;;;;26.16;70.81;99526.63;5069279;28;20196;-69
2022/06/07 04:50:15;;;;;;;7.47;6.40;;;;;;;25.90;72.35;99517.19;5070653;28;20195;-65
2022/06/07 04:52:42;;;;;;;6.43;5.13;;;;;;;26.04;72.42;99524.38;5069729;28;20219;-65
2022/06/07 04:55:10;;;;;;;6.57;6.00;;;;;;;26.30;71.21;99527.50;5070788;28;20572;-65
2022/06/07 04:57:37;;;;;;;8.47;5.87;;;;;;;26.42;70.10;99520.47;5072277;28;20671;-64
2022/06/07 05:00:05;;;;;;;7.73;6.47;;;;;;;26.60;68.43;99535.19;5071154;28;20219;-64
2022/06/07 05:02:32;;;;;;;8.73;5.83;;;;;;;26.62;67.55;99547.41;5071891;28;20192;-64
2022/06/07 05:04:59;;;;;;;5.97;5.23;;;;;;;26.74;67.36;99553.19;5071915;28;20687;-64
2022/06/07 05:07:27;;;;;;;17.17;7.03;;;;;;;26.84;66.11;99550.28;5070432;28;20576;-64
2022/06/07 05:09:54;;;;;;;13.43;5.47;;;;;;;26.94;66.33;99544.63;5070853;28;20196;-64
2022/06/07 05:12:20;;;;;;;9.37;6.80;;;;;;;26.96;66.02;99552.50;5070874;28;20192;-63
2022/06/07 05:14:47;;;;;;;6.83;6.23;;;;;;;27.15;65.19;99553.25;5070572;28;20564;-63
2022/06/07 05:17:14;;;;;;;8.30;6.30;;;;;;;27.33;65.25;99557.81;5070285;28;20191;-67
2022/06/07 05:19:41;;;;;;;10.70;6.70;;;;;;;27.69;64.40;99569.63;5069915;28;20215;-64
2022/06/07 05:22:08;;;;;;;12.93;6.73;;;;;;;27.75;64.83;99554.72;5070939;28;20265;-65
2022/06/07 05:24:37;;;;;;;9.70;6.83;;;;;;;27.64;62.88;99561.53;5071068;28;20200;-72
2022/06/07 05:27:06;;;;;;;9.97;6.73;;;;;;;27.54;63.96;99554.38;5069821;28;20690;-65
2022/06/07 05:29:36;;;;;;;10.17;6.43;;;;;;;27.42;64.07;99559.53;5071520;28;20316;-64
2022/06/07 05:32:02;;;;;;;9.90;6.07;;;;;;;27.36;64.74;99562.69;5066581;28;20196;-66
2022/06/07 05:34:29;;;;;;;7.93;7.17;;;;;;;27.20;63.81;99559.41;5071616;28;20192;-64
2022/06/07 05:36:56;;;;;;;15.63;7.43;;;;;;;27.03;66.35;99564.63;5071833;28;20748;-65
2022/06/07 05:39:25;;;;;;;11.77;6.97;;;;;;;27.00;65.49;99548.06;5071367;28;20368;-65
2022/06/07 05:41:53;;;;;;;8.40;7.60;;;;;;;27.04;65.13;99560.81;5071810;28;20196;-65
2022/06/07 05:44:21;;;;;;;13.20;7.07;;;;;;;26.77;66.21;99549.03;5072071;28;20257;-65
2022/06/07 05:46:48;;;;;;;9.57;6.17;;;;;;;26.62;66.20;99557.50;5071919;28;20192;-67
2022/06/07 05:49:15;;;;;;;11.13;5.60;;;;;;;26.55;65.36;99529.78;5071895;28;20203;-65
2022/06/07 05:51:43;;;;;;;10.70;5.93;;;;;;;26.44;64.95;99550.94;5070368;28;20663;-70
2022/06/07 05:54:11;;;;;;;7.83;6.20;;;;;;;26.34;65.08;99545.66;5071148;28;20192;-66
2022/06/07 05:56:38;;;;;;;11.23;6.37;;;;;;;26.34;66.77;99544.88;5070347;28;20192;-65
2022/06/07 05:59:06;;;;;;;10.10;6.13;;;;;;;26.50;68.07;99527.16;5070601;28;20223;-69
2022/06/07 06:01:34;;;;;;;12.77;5.00;;;;;;;26.93;68.99;99532.13;5065107;28;20266;-66
2022/06/07 06:04:03;;;;;;;18.50;5.50;;;;;;;27.53;65.88;99536.38;5069789;28;20254;-65
2022/06/07 06:06:30;;;;;;;7.60;5.13;;;;;;;27.94;63.80;99544.50;5069625;28;20195;-65
2022/06/07 06:11:41;;;;;;;11.53;5.93;;;;;;;29.28;55.98;99540.25;5070035;28;20190;-61
2022/06/07 06:14:10;;;;;;;13.13;5.20;;;;;;;30.04;51.71;99568.94;5069972;28;20199;-73
2022/06/07 06:16:37;;;;;;;8.40;5.43;;;;;;;29.83;53.52;99557.00;5069727;28;20187;-65
2022/06/07 06:19:04;;;;;;;9.63;4.17;;;;;;;29.80;53.37;99567.78;5069666;28;20230;-65
2022/06/07 06:21:34;;;;;;;11.73;4.90;;;;;;;29.95;51.49;99559.91;5069809;28;20203;-66
2022/06/07 06:24:02;;;;;;;11.47;4.27;;;;;;;30.42;51.96;99561.69;5069261;28;20620;-64
2022/06/07 06:26:29;;;;;;;5.67;3.60;;;;;;;30.83;52.32;99544.72;5069945;28;20250;-64
2022/06/07 06:28:57;;;;;;;9.13;5.77;;;;;;;31.34;48.78;99559.06;5070292;28;20198;-63
2022/06/07 06:31:25;;;;;;;6.20;4.27;;;;;;;31.62;47.89;99562.97;5071132;28;20188;-64
2022/06/07 06:33:54;;;;;;;11.60;4.47;;;;;;;31.73;44.59;99564.16;5070167;28;20667;-64
2022/06/07 06:36:25;;;;;;;4.90;3.13;;;;;;;31.89;42.32;99576.22;5070819;28;20196;-64
2022/06/07 06:38:52;;;;;;;9.93;3.23;;;;;;;32.40;37.04;99591.53;5072976;28;20311;-64
2022/06/07 06:41:22;;;;;;;6.53;2.87;;;;;;;32.76;36.04;99591.69;5074285;28;20192;-65
2022/06/07 06:43:50;;;;;;;5.90;2.90;;;;;;;32.27;39.76;99560.41;5074823;28;20264;-64
2022/06/07 06:46:19;;;;;;;4.37;2.77;;;;;;;32.13;41.58;99543.38;5074531;28;20196;-64
2022/06/07 06:48:48;;;;;;;4.93;2.60;;;;;;;31.96;40.18;99546.25;5075479;28;20188;-63
2022/06/07 06:51:18;;;;;;;1.93;1.83;;;;;;;31.90;37.52;99555.03;5074691;28;20253;-64
2022/06/07 06:53:45;;;;;;;5.37;3.00;;;;;;;31.65;41.76;99548.53;5075183;28;20281;-64
2022/06/07 06:56:14;;;;;;;7.23;2.53;;;;;;;31.53;42.59;99542.97;5074429;28;20611;-64
2022/06/07 06:58:42;;;;;;;8.43;3.03;;;;;;;31.65;39.43;99550.50;5073269;28;20616;-66
2022/06/07 07:01:13;;;;;;;3.60;2.50;;;;;;;31.43;36.30;99559.81;5073918;28;20184;-66
2022/06/07 07:03:41;;;;;;;3.00;2.30;;;;;;;31.16;37.66;99546.53;5072888;28;20192;-67
2022/06/07 07:06:11;;;;;;;4.63;2.20;;;;;;;31.06;40.80;99540.59;5074077;28;20200;-65
2022/06/07 07:08:40;;;;;;;2.67;2.20;;;;;;;31.35;39.95;99544.19;5072648;28;20614;-65
2022/06/07 07:11:09;;;;;;;2.70;1.90;;;;;;;31.54;33.84;99558.31;5073677;28;20192;-67
2022/06/07 07:13:36;;;;;;;2.50;2.30;;;;;;;31.75;37.84;99542.66;5073662;28;20233;-65
2022/06/07 07:16:04;;;;;;;2.47;2.00;;;;;;;31.93;37.85;99543.38;5074430;28;20245;-67
2022/06/07 07:18:32;;;;;;;3.27;2.37;;;;;;;32.09;37.48;99536.16;5074352;28;20199;-66
2022/06/07 07:20:58;;;;;;;5.13;2.60;;;;;;;32.19;36.03;99546.72;5073468;28;20220;-68
2022/06/07 07:23:26;;;;;;;4.73;2.47;;;;;;;32.28;37.23;99542.75;5073796;28;20207;-67
2022/06/07 07:25:53;;;;;;;2.63;1.90;;;;;;;32.32;37.28;99534.66;5073514;28;20196;-66
2022/06/07 07:28:20;;;;;;;3.20;2.00;;;;;;;32.49;35.69;99543.56;5073815;28;20229;-66
2022/06/07 07:30:47;;;;;;;5.63;2.50;;;;;;;32.71;33.58;99545.91;5074135;28;20188;-66
2022/06/07 07:33:14;;;;;;;3.50;2.20;;;;;;;32.52;35.64;99536.56;5074114;28;20187;-66
2022/06/07 07:35:44;;;;;;;2.70;2.50;;;;;;;32.44;34.70;99540.22;5074255;28;20249;-64
2022/06/07 07:38:11;;;;;;;3.77;2.23;;;;;;;32.37;33.64;99542.69;5073887;28;20737;-66
2022/06/07 07:40:41;;;;;;;5.30;2.83;;;;;;;31.43;34.51;99534.28;5073889;28;20204;-66
2022/06/07 07:43:08;;;;;;;4.37;2.83;;;;;;;31.61;32.87;99531.09;5073999;28;20279;-65
2022/06/07 07:45:36;;;;;;;4.40;2.93;;;;;;;31.24;35.19;99523.72;5074216;28;20271;-64
2022/06/07 07:48:03;;;;;;;8.87;3.07;;;;;;;30.89;36.66;99514.03;5073643;28;20283;-66
2022/06/07 07:50:30;;;;;;;3.10;2.80;;;;;;;29.63;36.79;99513.00;5073271;28;20196;-64
2022/06/07 07:52:58;;;;;;;2.60;2.40;;;;;;;30.31;36.23;99513.81;5074016;28;20192;-65
2022/06/07 07:55:24;;;;;;;4.80;2.60;;;;;;;30.04;35.11;99519.59;5073655;28;20283;-66
2022/06/07 07:57:53;;;;;;;15.83;3.33;;;;;;;30.36;37.22;99504.59;5073370;28;20192;-65
2022/06/07 08:00:20;;;;;;;2.30;2.10;;;;;;;30.65;35.56;99499.22;5073032;28;20216;-65
2022/06/07 08:02:47;;;;;;;3.40;2.07;;;;;;;30.60;37.80;99494.72;5073784;28;20257;-65
2022/06/07 08:05:14;;;;;;;3.83;2.00;;;;;;;30.85;36.52;99491.13;5073555;28;20191;-65
2022/06/07 08:07:40;;;;;;;6.17;2.67;;;;;;;30.99;34.27;99496.41;5073122;28;20729;-65
2022/06/07 08:10:08;;;;;;;7.70;2.40;;;;;;;30.71;34.66;99496.03;5073203;28;20201;-65
2022/06/07 08:12:36;;;;;;;2.40;2.20;;;;;;;30.58;34.31;99501.69;5073173;28;20200;-65
2022/06/07 08:15:06;;;;;;;2.13;1.80;;;;;;;30.36;34.84;99497.19;5073771;28;20188;-64
2022/06/07 08:17:33;;;;;;;2.93;1.87;;;;;;;30.71;34.41;99498.78;5073436;28;20276;-64
2022/06/07 08:19:59;;;;;;;3.90;1.73;;;;;;;30.06;34.83;99495.44;5072774;28;20644;-64
2022/06/07 08:22:26;;;;;;;4.20;1.90;;;;;;;29.56;35.57;99490.72;5072927;28;20249;-64
2022/06/07 08:24:53;;;;;;;2.53;1.97;;;;;;;28.77;37.36;99490.78;5072964;28;20270;-64
2022/06/07 08:27:20;;;;;;;1.90;1.80;;;;;;;29.27;36.31;99496.75;5073078;28;20199;-64
2022/06/07 08:29:47;;;;;;;3.23;1.57;;;;;;;28.98;37.28;99483.63;5073782;28;20312;-65
2022/06/07 08:32:15;;;;;;;1.80;1.60;;;;;;;28.46;36.94;99489.94;5072704;28;20188;-65
2022/06/07 08:37:37;;;;;;;2.10;1.60;;;;;;;28.05;36.62;99475.66;5071790;28;20576;-69
2022/06/07 08:40:09;;;;;;;2.30;1.50;;;;;;;28.07;36.68;99475.38;5056491;28;20224;-66
2022/06/07 08:42:38;;;;;;;1.77;1.30;;;;;;;28.23;35.65;99469.22;5049375;28;20271;-65
2022/06/07 08:45:08;;;;;;;1.30;1.20;;;;;;;27.31;38.40;99472.75;5052687;28;20280;-66
2022/06/07 08:47:42;;;;;;;3.03;1.60;;;;;;;27.63;37.58;99467.91;5050340;28;20548;-65
2022/06/07 08:50:18;;;;;;;7.13;2.10;;;;;;;28.13;37.84;99458.53;5049619;28;20280;-65
2022/06/07 08:52:47;;;;;;;2.20;1.77;;;;;;;28.41;37.58;99460.03;5050658;28;20195;-67
2022/06/07 08:55:18;;;;;;;5.93;1.60;;;;;;;28.65;35.37;99459.66;5047743;28;20232;-67
2022/06/07 08:57:54;;;;;;;2.37;1.63;;;;;;;29.06;35.47;99461.00;5051332;28;20203;-68
2022/06/07 09:00:25;;;;;;;2.17;1.63;;;;;;;29.10;36.49;99456.50;5048798;28;20235;-68
2022/06/07 09:03:42;;;;;;;1.83;1.47;;;;;;;29.19;35.67;99459.22;5050125;28;20968;-65
2022/06/07 09:06:18;;;;;;;3.23;1.67;;;;;;;28.98;36.89;99452.72;4959267;28;20197;-67
2022/06/07 09:08:49;;;;;;;2.53;1.87;;;;;;;27.92;38.57;99435.56;4968062;28;20697;-65
2022/06/07 09:14:06;;;;;;;1.57;1.57;;;;;;;28.28;37.05;99438.22;5048825;28;20183;-65
2022/06/07 09:16:38;;;;;;;1.50;1.40;;;;;;;27.96;37.58;99439.28;5049010;28;20327;-69
2022/06/07 09:19:10;;;;;;;9.40;2.10;;;;;;;28.54;38.06;99434.53;5049391;28;20188;-68
2022/06/07 09:21:44;;;;;;;2.07;1.97;;;;;;;28.44;37.40;99443.00;5049440;28;20247;-65
2022/06/07 09:24:14;;;;;;;2.30;2.10;;;;;;;28.74;36.28;99452.28;5049028;28;20187;-65
2022/06/07 09:26:42;;;;;;;2.30;2.20;;;;;;;28.07;37.41;99437.13;5050515;28;20189;-64
2022/06/07 09:29:21;;;;;;;2.10;2.00;;;;;;;28.56;38.09;99429.56;5049135;28;20197;-66
2022/06/07 09:31:49;;;;;;;3.97;2.30;;;;;;;29.23;36.12;99432.84;5050203;28;20189;-65
2022/06/07 09:34:19;;;;;;;3.63;2.30;;;;;;;29.50;36.63;99421.63;5050359;28;20200;-64
2022/06/07 09:36:54;;;;;;;1.93;1.70;;;;;;;29.98;35.79;99416.78;5051559;28;20695;-65
2022/06/07 09:39:28;;;;;;;3.43;1.70;;;;;;;30.37;35.11;99411.06;5051997;28;20232;-66
2022/06/07 09:42:01;;;;;;;4.23;2.20;;;;;;;30.58;34.05;99413.91;5050180;28;20270;-66
2022/06/07 09:44:32;;;;;;;4.10;1.83;;;;;;;30.38;33.54;99420.91;5050851;28;20185;-66
2022/06/07 09:47:01;;;;;;;3.60;2.07;;;;;;;30.42;34.39;99416.38;5051414;28;20196;-66
2022/06/07 09:49:34;;;;;;;3.67;2.00;;;;;;;30.56;34.48;99413.44;5052521;28;20188;-66
2022/06/07 09:52:11;;;;;;;2.67;2.57;;;;;;;30.77;32.82;99406.09;5051712;28;20189;-65
2022/06/07 09:54:41;;;;;;;3.20;2.10;;;;;;;30.45;32.36;99410.25;5051719;28;20347;-65
2022/06/07 09:57:18;;;;;;;2.37;1.93;;;;;;;30.73;32.19;99400.47;5051373;28;20196;-65
2022/06/07 09:59:58;;;;;;;2.00;1.80;;;;;;;30.96;32.77;99393.59;5051281;28;20652;-66
2022/06/07 10:02:53;;;;;;;6.27;4.83;;;;;;;31.09;31.97;99392.53;5051508;28;20237;-66
2022/06/07 10:05:28;;;;;;;3.60;2.33;;;;;;;31.23;30.97;99393.09;5032978;28;20196;-65
2022/06/07 10:08:04;;;;;;;1.70;1.60;;;;;;;31.23;32.97;99381.34;5044977;28;20193;-67
2022/06/07 10:10:38;;;;;;;4.17;2.03;;;;;;;31.13;33.40;99374.25;5028981;28;20263;-67
2022/06/07 10:13:16;;;;;;;16.07;3.10;;;;;;;31.17;32.25;99383.44;5052318;28;20204;-67
2022/06/07 10:15:50;;;;;;;3.70;1.60;;;;;;;31.06;32.47;99371.22;5055088;28;20620;-66
2022/06/07 10:18:31;;;;;;;4.07;2.40;;;;;;;31.31;31.57;99367.53;5054436;28;20242;-67
2022/06/07 10:21:16;;;;;;;2.00;1.80;;;;;;;30.69;32.61;99344.69;5055131;28;20338;-66
2022/06/07 10:24:04;;;;;;;1.87;1.77;;;;;;;31.16;32.74;99359.06;5034446;28;20280;-66
2022/06/07 10:26:43;;;;;;;2.20;1.40;;;;;;;31.53;32.33;99352.66;5035093;28;20633;-66
2022/06/07 10:29:31;;;;;;;2.30;1.97;;;;;;;31.84;32.89;99353.81;5034812;28;20220;-67
2022/06/07 10:32:04;;;;;;;2.73;1.90;;;;;;;31.62;31.94;99339.63;5036009;28;20188;-67
2022/06/07 10:34:37;;;;;;;1.73;1.63;;;;;;;31.06;33.66;99338.31;5052811;28;20197;-67
2022/06/07 10:37:18;;;;;;;8.90;1.87;;;;;;;30.45;34.51;99330.72;5051152;28;20189;-67
2022/06/07 10:39:54;;;;;;;2.90;1.93;;;;;;;30.51;33.68;99325.88;5038248;28;20767;-64
2022/06/07 10:42:36;;;;;;;2.77;2.00;;;;;;;30.70;34.83;99316.09;5046085;28;20215;-66
2022/06/07 10:45:12;;;;;;;7.77;2.13;;;;;;;30.44;35.61;99315.41;5054717;28;20271;-64
2022/06/07 10:47:49;;;;;;;2.00;1.60;;;;;;;30.59;36.10;99312.13;5052830;28;20188;-64
2022/06/07 10:50:21;;;;;;;2.00;1.60;;;;;;;30.50;34.94;99308.59;5054298;28;20295;-68
2022/06/07 10:53:01;;;;;;;3.30;1.80;;;;;;;30.42;35.83;99312.19;5051473;28;20220;-67
2022/06/07 10:55:37;;;;;;;3.53;1.70;;;;;;;30.35;36.19;99309.19;5053593;28;20192;-67
2022/06/07 10:58:28;;;;;;;3.77;2.00;;;;;;;30.32;35.22;99312.56;5052525;28;20193;-65
2022/06/07 11:01:02;;;;;;;3.67;3.00;;;;;;;30.34;33.42;99313.03;5051925;28;20219;-65
2022/06/07 11:03:38;;;;;;;2.03;1.93;;;;;;;29.90;34.27;99309.97;5053564;28;20203;-65
2022/06/07 11:11:44;;;;;;;2.43;2.33;;;;;;;29.76;33.52;99285.50;5053734;28;20203;-65
2022/06/07 11:14:21;;;;;;;1.73;1.63;;;;;;;29.68;34.02;99286.31;5052728;28;20197;-66
2022/06/07 11:16:59;;;;;;;4.27;2.10;;;;;;;29.59;34.20;99291.03;5053850;28;20189;-65
2022/06/07 11:19:26;;;;;;;1.83;1.73;;;;;;;29.41;34.48;99281.22;5051584;28;20737;-67
2022/06/07 11:21:57;;;;;;;2.23;1.90;;;;;;;29.53;34.14;99275.88;5053197;28;20293;-66
2022/06/07 11:24:28;;;;;;;3.90;1.80;;;;;;;29.57;34.71;99268.66;5054260;28;20184;-65
2022/06/07 11:27:18;;;;;;;5.00;2.03;;;;;;;29.06;35.99;99261.28;5053794;28;20189;-64
2022/06/07 11:29:46;;;;;;;7.20;2.20;;;;;;;29.06;35.57;99263.19;5053920;28;20255;-68
2022/06/07 11:32:49;;;;;;;2.20;2.10;;;;;;;29.24;34.21;99270.28;5052716;28;20197;-66
2022/06/07 11:35:48;;;;;;;2.07;1.97;;;;;;;28.82;35.43;99258.16;5053551;28;20184;-65
2022/06/07 11:38:30;;;;;;;3.20;2.47;;;;;;;28.36;36.23;99255.19;5053861;28;20276;-66
2022/06/07 11:41:41;;;;;;;4.00;2.00;;;;;;;28.71;35.93;99245.16;5053772;28;20765;-67
2022/06/07 11:44:35;;;;;;;2.07;1.97;;;;;;;29.16;38.33;99246.47;5050681;28;20287;-66
2022/06/07 11:47:23;;;;;;;10.70;2.60;;;;;;;29.27;34.76;99251.28;5053823;28;20680;-68
2022/06/07 11:49:59;;;;;;;2.47;2.13;;;;;;;29.45;38.26;99237.56;5053187;28;20203;-67
2022/06/07 11:52:27;;;;;;;2.23;2.13;;;;;;;29.64;38.19;99230.59;5052065;28;20199;-67
2022/06/07 11:54:57;;;;;;;3.13;2.13;;;;;;;29.66;37.19;99233.00;5053798;28;20222;-67
2022/06/07 11:57:30;;;;;;;2.27;2.07;;;;;;;29.80;37.32;99228.16;5052852;28;20546;-68
2022/06/07 12:00:00;;;;;;;3.30;2.30;;;;;;;29.88;36.65;99233.56;5053562;28;20626;-67
2022/06/07 12:02:33;;;;;;;4.73;2.17;;;;;;;30.14;35.76;99226.09;5053202;28;20278;-66
2022/06/07 12:05:16;;;;;;;5.20;2.10;;;;;;;30.36;36.70;99220.31;5050637;28;20280;-66